LiveATC.Net - Listen to live air traffic control over the Internet! Contact LiveATC.net for advertising information


ICAO: KSKX  IATA: SKX   Airport: Taos Regional Airport
City: Taos   State/Province: New Mexico
Country: United States   Continent: North America
KSKX METAR Weather: KSKX 311955Z AUTO 24006KT 10SM SCT060 14/M04 A3035 RMK AO1
KSKX Flight Activity (FlightAware)
KSKX Airport Info   (AirNav) (iFlightPlanner)
KSKX CTAF
Feed Status: DOWN
Last heard on: 2013-12-19 03:00:04 (316 days 17 hours 15 minutes ago)
KSKX CTAF Audio Archives
FacilityFrequency
Taos CTAF/UNICOM122.800


NOTICE

Unauthorized use prohibited. See LiveATC.net Terms of Service


Find LiveATC Audio Streams


Airport/ARTCC Code

Frequency
(e.g., 124.400, 128.75)
Site-wide search

Browse LiveATC Feeds
LiveATC Coverage Map
Top 50 LiveATC Feeds
Bad Weather Areas

LiveATC FAQ
Offer a LiveATC Feed
Contact LiveATC.net
Press Inquiries

LiveATC on iPhone
LiveATC on Android

LiveATC Mobile
(Mobile browser)

ATC Audio Archives
Interesting Recordings

LiveATC Forums


Home Page
About LiveATC.net
Make a Donation
LiveATC Bookstore

Terms of Use
Privacy Policy

ATC/Radar Sites
U.S. ARTCC Freqs
Canadian Air Freqs

AIRMETs/SIGMETs

FAA Airport Status
Nat'l Airspace Status
Arrival Demand Charts


Server Software By:
Icecast.org
Liquidsoap

Please make a donation to help us keep growing!